Time;durP1;ratioP1;P1;durP2;ratioP2;P2;SDS_P1;SDS_P2;PMS_P1;PMS_P2;Temp;Humidity;BMP_temperature;BMP_pressure;BME280_temperature;BME280_humidity;BME280_pressure;Samples;Min_cycle;Max_cycle;Signal;HPM_P1;HPM_P2
2024/03/19 00:00:49;;;;;;;7.20;4.30;;;;;;;3.27;100.00;99883.98;111187;1231;72590;-68
2024/03/19 00:03:16;;;;;;;6.20;4.20;;;;;;;3.31;100.00;99885.89;111170;1231;61181;-66
2024/03/19 00:05:43;;;;;;;7.00;4.40;;;;;;;3.35;100.00;99881.77;111173;1231;61717;-67
2024/03/19 00:08:10;;;;;;;6.50;4.70;;;;;;;3.32;100.00;99886.77;111167;1231;74581;-67
2024/03/19 00:10:37;;;;;;;7.10;5.20;;;;;;;3.35;100.00;99886.24;111163;1231;72375;-66
2024/03/19 00:13:04;;;;;;;6.50;4.80;;;;;;;3.40;100.00;99887.75;111162;1235;72389;-68
2024/03/19 00:15:31;;;;;;;5.90;4.40;;;;;;;3.46;100.00;99885.15;111205;1231;60272;-68
2024/03/19 00:17:58;;;;;;;6.90;4.80;;;;;;;3.43;100.00;99884.45;111176;1231;61098;-69
2024/03/19 00:20:25;;;;;;;7.00;4.90;;;;;;;3.40;100.00;99887.55;111195;1232;75079;-67
2024/03/19 00:22:52;;;;;;;7.50;5.30;;;;;;;3.46;100.00;99888.38;111153;1231;72753;-67
2024/03/19 00:25:19;;;;;;;7.30;5.00;;;;;;;3.53;100.00;99886.98;111126;1231;72185;-67
2024/03/19 00:27:46;;;;;;;7.80;4.90;;;;;;;3.60;100.00;99886.75;111194;1231;61194;-67
2024/03/19 00:30:13;;;;;;;6.80;4.80;;;;;;;3.66;100.00;99882.92;111195;1231;61747;-67
2024/03/19 00:32:41;;;;;;;7.20;5.10;;;;;;;3.68;100.00;99883.42;111202;1231;74832;-67
2024/03/19 00:35:11;;;;;;;7.80;4.90;;;;;;;3.70;100.00;99880.98;111194;1231;73358;-67
2024/03/19 00:37:42;;;;;;;6.50;4.80;;;;;;;3.77;100.00;99883.02;111046;1237;72599;-67
2024/03/19 00:40:13;;;;;;;6.20;4.30;;;;;;;3.83;100.00;99883.45;111257;1231;61114;-67
2024/03/19 00:42:40;;;;;;;6.60;4.20;;;;;;;3.90;100.00;99882.52;111166;1232;60276;-68
2024/03/19 00:45:08;;;;;;;5.60;4.20;;;;;;;3.94;100.00;99884.28;111032;1231;75021;-68
2024/03/19 00:47:35;;;;;;;4.90;3.60;;;;;;;3.95;100.00;99887.27;111171;1232;71220;-67
2024/03/19 00:50:02;;;;;;;5.50;4.10;;;;;;;3.97;100.00;99886.73;111199;1235;72323;-67
2024/03/19 00:52:29;;;;;;;6.80;4.00;;;;;;;4.00;100.00;99886.64;111166;1231;61223;-67
2024/03/19 00:54:57;;;;;;;6.30;3.40;;;;;;;4.02;100.00;99886.20;111193;1231;61117;-67
2024/03/19 00:57:24;;;;;;;5.60;3.80;;;;;;;4.02;100.00;99882.13;111241;1231;74582;-67
2024/03/19 00:59:51;;;;;;;5.80;3.60;;;;;;;4.02;100.00;99887.31;111188;1231;71223;-67
2024/03/19 01:02:19;;;;;;;5.70;3.80;;;;;;;3.97;100.00;99890.85;111178;1231;71429;-67
2024/03/19 01:04:46;;;;;;;4.90;3.10;;;;;;;3.92;100.00;99890.37;111205;1231;61304;-66
2024/03/19 01:07:21;;;;;;;4.60;3.20;;;;;;;3.89;100.00;99893.35;111199;1231;61232;-67
2024/03/19 01:09:50;;;;;;;4.70;3.10;;;;;;;3.72;100.00;99897.09;111247;1231;74294;-68
2024/03/19 01:12:17;;;;;;;4.80;3.20;;;;;;;3.54;100.00;99896.06;111171;1232;73492;-67
2024/03/19 01:14:44;;;;;;;4.40;2.90;;;;;;;3.40;100.00;99894.94;111156;1231;72379;-68
2024/03/19 01:17:12;;;;;;;5.20;3.30;;;;;;;3.32;100.00;99891.39;111125;1231;61288;-68
2024/03/19 01:19:39;;;;;;;4.70;3.00;;;;;;;3.27;100.00;99890.33;111177;1231;59935;-67
2024/03/19 01:22:06;;;;;;;4.30;2.80;;;;;;;3.21;100.00;99889.64;110966;1231;217404;-68
2024/03/19 01:24:33;;;;;;;5.00;2.80;;;;;;;3.19;100.00;99887.85;111185;1231;70781;-67
2024/03/19 01:27:00;;;;;;;4.10;2.60;;;;;;;3.22;100.00;99891.14;111139;1231;72651;-67
2024/03/19 01:29:27;;;;;;;3.40;2.40;;;;;;;3.24;100.00;99889.20;111180;1231;61045;-67
2024/03/19 01:31:54;;;;;;;3.70;2.20;;;;;;;3.27;100.00;99891.91;111173;1231;61066;-67
2024/03/19 01:34:21;;;;;;;4.30;2.10;;;;;;;3.27;100.00;99890.90;111168;1235;75087;-67
2024/03/19 01:36:48;;;;;;;4.00;2.10;;;;;;;3.27;100.00;99888.48;111184;1231;72696;-68
2024/03/19 01:39:16;;;;;;;4.00;2.20;;;;;;;3.22;100.00;99891.42;111179;1231;71297;-67
2024/03/19 01:41:43;;;;;;;3.30;1.80;;;;;;;3.13;100.00;99891.14;111169;1231;61155;-67
2024/03/19 01:44:11;;;;;;;3.60;2.00;;;;;;;3.09;100.00;99893.14;111173;1231;60257;-67
2024/03/19 01:46:38;;;;;;;4.00;2.10;;;;;;;3.08;100.00;99896.43;111020;1231;73226;-67
2024/03/19 01:49:05;;;;;;;5.20;2.60;;;;;;;3.09;100.00;99897.45;111210;1231;72458;-67
2024/03/19 01:51:32;;;;;;;4.30;2.40;;;;;;;3.05;100.00;99898.80;111217;1232;72262;-67
2024/03/19 01:53:59;;;;;;;4.20;2.40;;;;;;;3.04;100.00;99899.81;111203;1231;61278;-67
2024/03/19 01:56:26;;;;;;;4.00;2.50;;;;;;;3.04;100.00;99899.29;111033;1231;61110;-67
2024/03/19 01:58:53;;;;;;;4.90;2.50;;;;;;;3.07;100.00;99901.73;111039;1231;75130;-67
2024/03/19 02:01:21;;;;;;;4.00;2.40;;;;;;;3.11;100.00;99901.89;110882;1231;73562;-67
2024/03/19 02:03:48;;;;;;;4.60;2.50;;;;;;;3.10;100.00;99899.95;111221;1231;72649;-67
2024/03/19 02:06:15;;;;;;;3.80;2.30;;;;;;;3.02;100.00;99904.35;111195;1235;61107;-67
2024/03/19 02:09:14;;;;;;;2.80;1.90;;;;;;;2.96;100.00;99905.48;111195;1231;61067;-67
2024/03/19 02:11:40;;;;;;;3.50;1.90;;;;;;;2.89;100.00;99912.40;111187;1231;75701;-67
2024/03/19 02:14:08;;;;;;;2.80;1.90;;;;;;;2.84;100.00;99912.77;111171;1231;71140;-66
2024/03/19 02:16:36;;;;;;;3.60;2.40;;;;;;;2.80;100.00;99917.80;111210;1231;72670;-67
2024/03/19 02:19:06;;;;;;;3.60;2.20;;;;;;;2.79;100.00;99917.80;111187;1231;61746;-67
2024/03/19 02:21:34;;;;;;;3.30;2.00;;;;;;;2.79;100.00;99917.75;111026;1231;62058;-67
2024/03/19 02:24:02;;;;;;;3.10;2.00;;;;;;;2.80;100.00;99922.49;111210;1230;74627;-67
2024/03/19 02:26:30;;;;;;;2.50;1.70;;;;;;;2.80;100.00;99923.79;111195;1231;72589;-66
2024/03/19 02:28:57;;;;;;;3.00;1.80;;;;;;;2.78;100.00;99925.85;111224;1235;72380;-67
2024/03/19 02:31:27;;;;;;;2.60;1.60;;;;;;;2.77;100.00;99924.20;111163;1231;61092;-66
2024/03/19 02:33:57;;;;;;;2.40;1.50;;;;;;;2.78;100.00;99923.11;111212;1231;61753;-68
2024/03/19 02:36:24;;;;;;;2.50;1.80;;;;;;;2.82;100.00;99923.97;111172;1231;74357;-66
2024/03/19 02:38:53;;;;;;;3.80;1.70;;;;;;;2.83;100.00;99923.95;111228;1231;71595;-68
2024/03/19 02:41:20;;;;;;;2.40;1.40;;;;;;;2.82;100.00;99928.91;111205;1231;71051;-67
2024/03/19 02:43:47;;;;;;;3.10;1.60;;;;;;;2.83;100.00;99928.05;111159;1231;61210;-68
2024/03/19 02:46:14;;;;;;;2.80;1.60;;;;;;;2.84;100.00;99927.34;111190;1231;61080;-67
2024/03/19 02:48:41;;;;;;;2.90;1.40;;;;;;;2.87;100.00;99936.55;111153;1231;74453;-67
2024/03/19 02:51:08;;;;;;;2.60;1.70;;;;;;;2.92;100.00;99937.52;111172;1232;72671;-67
2024/03/19 02:53:34;;;;;;;2.80;1.70;;;;;;;2.91;100.00;99944.83;111210;1231;71507;-68
2024/03/19 02:56:01;;;;;;;3.40;1.80;;;;;;;2.92;100.00;99949.64;111183;1232;59605;-67
2024/03/19 02:58:28;;;;;;;2.40;1.50;;;;;;;2.91;100.00;99959.85;111175;1231;61184;-67
2024/03/19 03:00:55;;;;;;;2.10;1.30;;;;;;;2.89;100.00;99962.67;111137;1232;75381;-66
2024/03/19 03:03:22;;;;;;;2.10;1.20;;;;;;;2.90;100.00;99960.95;111189;1232;71158;-68
2024/03/19 03:05:50;;;;;;;2.50;1.20;;;;;;;2.92;100.00;99963.48;111204;1231;72434;-68
2024/03/19 03:08:17;;;;;;;2.20;1.40;;;;;;;2.91;100.00;99965.08;111168;1231;61276;-68
2024/03/19 03:10:44;;;;;;;1.80;1.20;;;;;;;2.84;100.00;99963.67;111219;1231;61278;-67
2024/03/19 03:13:11;;;;;;;1.50;1.10;;;;;;;2.76;100.00;99964.52;111180;1231;73511;-69
2024/03/19 03:15:38;;;;;;;1.50;1.00;;;;;;;2.74;100.00;99975.10;111173;1231;72484;-67
2024/03/19 03:18:05;;;;;;;5.20;1.40;;;;;;;2.73;100.00;99974.48;111178;1232;70873;-66
2024/03/19 03:20:32;;;;;;;2.30;1.30;;;;;;;2.73;100.00;99975.33;111168;1231;60285;-67
2024/03/19 03:22:58;;;;;;;2.90;1.50;;;;;;;2.74;100.00;99976.27;111253;1231;61018;-68
2024/03/19 03:25:26;;;;;;;2.50;1.40;;;;;;;2.75;100.00;99977.55;111189;1231;75094;-65
2024/03/19 03:27:54;;;;;;;2.00;1.30;;;;;;;2.76;100.00;99984.27;111139;1235;72377;-66
2024/03/19 03:30:22;;;;;;;2.20;1.40;;;;;;;2.73;100.00;99988.86;111193;1232;72513;-67
2024/03/19 03:32:49;;;;;;;2.00;1.40;;;;;;;2.73;100.00;99992.71;111163;1231;61130;-67
2024/03/19 03:35:18;;;;;;;2.20;1.40;;;;;;;2.72;100.00;99995.56;111182;1237;61035;-67
2024/03/19 03:37:45;;;;;;;3.40;1.80;;;;;;;2.70;100.00;100000.05;111173;1231;74379;-67
2024/03/19 03:40:23;;;;;;;2.40;1.60;;;;;;;2.69;100.00;100004.15;111151;1235;71342;-68
2024/03/19 03:42:51;;;;;;;2.60;1.70;;;;;;;2.68;100.00;100007.05;111159;1231;71133;-68
2024/03/19 03:45:21;;;;;;;2.90;1.70;;;;;;;2.70;100.00;100007.98;111131;1231;61072;-67
2024/03/19 03:47:49;;;;;;;3.60;1.80;;;;;;;2.75;100.00;100015.53;111137;1231;61089;-67
2024/03/19 03:50:17;;;;;;;3.90;2.00;;;;;;;2.80;100.00;100020.75;111193;1231;74558;-67
2024/03/19 03:52:45;;;;;;;3.10;2.10;;;;;;;2.84;100.00;100019.70;111178;1232;71940;-66
2024/03/19 03:55:13;;;;;;;3.30;2.30;;;;;;;2.88;100.00;100021.65;111193;1231;71365;-67
2024/03/19 03:57:45;;;;;;;4.20;2.90;;;;;;;2.91;100.00;100027.70;111134;1231;61221;-67
2024/03/19 04:00:13;;;;;;;6.00;2.60;;;;;;;2.93;100.00;100034.54;111159;1231;61202;-67
2024/03/19 04:02:44;;;;;;;4.50;3.00;;;;;;;2.96;100.00;100038.52;111050;1231;73287;-67
2024/03/19 04:05:11;;;;;;;4.40;2.90;;;;;;;2.98;100.00;100039.99;111146;1231;71566;-67
2024/03/19 04:07:40;;;;;;;4.00;2.70;;;;;;;3.00;100.00;100043.42;111155;1231;72434;-67
2024/03/19 04:10:14;;;;;;;3.90;2.70;;;;;;;3.00;100.00;100049.80;111192;1231;61303;-67
2024/03/19 04:12:42;;;;;;;4.10;2.60;;;;;;;2.96;100.00;100055.73;111188;1231;61069;-67
2024/03/19 04:15:11;;;;;;;3.70;2.60;;;;;;;2.95;100.00;100062.80;111169;1231;73822;-68
2024/03/19 04:17:38;;;;;;;3.70;2.60;;;;;;;2.94;100.00;100067.58;111173;1231;72598;-68
2024/03/19 04:20:06;;;;;;;4.60;2.40;;;;;;;2.93;100.00;100071.56;111174;1231;72577;-68
2024/03/19 04:22:34;;;;;;;3.80;2.50;;;;;;;2.92;100.00;100074.31;111147;1235;61336;-67
2024/03/19 04:25:10;;;;;;;3.70;2.30;;;;;;;2.90;100.00;100077.02;111192;1231;61117;-69
2024/03/19 04:27:37;;;;;;;3.80;2.50;;;;;;;2.93;100.00;100080.27;111172;1231;74667;-67
2024/03/19 04:30:05;;;;;;;3.60;2.30;;;;;;;2.98;100.00;100082.86;111187;1235;71681;-68
2024/03/19 04:32:33;;;;;;;3.40;2.20;;;;;;;3.05;100.00;100089.05;111157;1231;71570;-67
2024/03/19 04:35:01;;;;;;;4.40;2.80;;;;;;;3.07;100.00;100094.88;111141;1231;61111;-67
2024/03/19 04:37:27;;;;;;;4.30;2.70;;;;;;;3.07;100.00;100101.63;111174;1235;59298;-67
2024/03/19 04:39:55;;;;;;;4.10;2.80;;;;;;;3.07;100.00;100108.08;111151;1231;73092;-67
2024/03/19 04:42:23;;;;;;;4.30;2.20;;;;;;;3.07;100.00;100118.41;111148;1231;72706;-68
2024/03/19 04:44:50;;;;;;;3.70;2.40;;;;;;;3.09;100.00;100120.63;111101;1231;72597;-69
2024/03/19 04:47:19;;;;;;;4.20;2.20;;;;;;;3.11;100.00;100119.96;111113;1231;61417;-68
2024/03/19 04:49:46;;;;;;;3.50;2.10;;;;;;;3.15;100.00;100125.28;111165;1231;60041;-68
2024/03/19 04:52:13;;;;;;;3.60;2.30;;;;;;;3.20;100.00;100125.71;111252;1231;75141;-67
2024/03/19 04:54:40;;;;;;;4.80;2.60;;;;;;;3.26;100.00;100130.33;111127;1231;72642;-68
2024/03/19 04:57:08;;;;;;;4.50;2.60;;;;;;;3.32;100.00;100134.52;111160;1231;71391;-67
2024/03/19 04:59:35;;;;;;;4.40;3.20;;;;;;;3.38;100.00;100141.24;110995;1231;61230;-67
2024/03/19 05:02:02;;;;;;;4.40;3.00;;;;;;;3.40;100.00;100143.20;111125;1231;61121;-68
2024/03/19 05:04:32;;;;;;;3.90;2.70;;;;;;;3.40;100.00;100147.52;111102;1231;74666;-68
2024/03/19 05:06:59;;;;;;;3.70;2.30;;;;;;;3.39;100.00;100149.50;111167;1231;73535;-67
2024/03/19 05:09:26;;;;;;;3.00;2.10;;;;;;;3.35;100.00;100157.15;111166;1231;72425;-67
2024/03/19 05:11:53;;;;;;;2.70;1.90;;;;;;;3.32;100.00;100158.84;111102;1231;61216;-68
2024/03/19 05:14:20;;;;;;;4.30;2.40;;;;;;;3.27;100.00;100163.65;111169;1231;61196;-68
2024/03/19 05:16:47;;;;;;;3.50;2.30;;;;;;;3.23;100.00;100166.56;111046;1231;73579;-68
2024/03/19 05:19:14;;;;;;;4.70;2.40;;;;;;;3.24;100.00;100168.34;111204;1231;72419;-67
2024/03/19 05:21:42;;;;;;;3.50;2.70;;;;;;;3.27;100.00;100172.62;111166;1235;72353;-67
2024/03/19 05:24:10;;;;;;;5.10;3.50;;;;;;;3.30;100.00;100175.64;111139;1231;61125;-68
2024/03/19 05:26:37;;;;;;;5.00;3.30;;;;;;;3.33;100.00;100184.38;111227;1231;61072;-68
2024/03/19 05:29:04;;;;;;;5.40;3.00;;;;;;;3.37;100.00;100182.23;111158;1235;75032;-68
2024/03/19 05:31:31;;;;;;;4.70;3.30;;;;;;;3.43;100.00;100183.93;111052;1231;73210;-68
2024/03/19 05:33:58;;;;;;;5.70;3.30;;;;;;;3.50;100.00;100183.75;111161;1231;73108;-67
2024/03/19 05:36:25;;;;;;;5.60;3.50;;;;;;;3.56;100.00;100184.60;111137;1231;61212;-68
2024/03/19 05:38:52;;;;;;;4.80;3.20;;;;;;;3.64;100.00;100182.42;111188;1231;61102;-68
2024/03/19 05:41:19;;;;;;;4.80;3.60;;;;;;;3.70;100.00;100179.92;111171;1231;73072;-68
2024/03/19 05:43:48;;;;;;;3.90;3.10;;;;;;;3.77;100.00;100183.34;111176;1231;72973;-68
2024/03/19 05:46:15;;;;;;;5.10;3.10;;;;;;;3.85;100.00;100183.92;111173;1231;71124;-68
2024/03/19 05:48:42;;;;;;;5.60;3.80;;;;;;;3.94;100.00;100188.70;111194;1231;61167;-69
2024/03/19 05:51:09;;;;;;;6.80;3.90;;;;;;;4.02;100.00;100190.02;111156;1231;60105;-68
2024/03/19 05:53:37;;;;;;;6.20;3.30;;;;;;;4.08;100.00;100199.40;111205;1231;72352;-68
2024/03/19 05:56:04;;;;;;;4.80;3.20;;;;;;;4.12;100.00;100199.24;111198;1232;72494;-69
2024/03/19 05:58:32;;;;;;;6.00;3.00;;;;;;;4.17;100.00;100207.41;111179;1231;72653;-68
2024/03/19 06:01:05;;;;;;;5.20;3.00;;;;;;;4.21;100.00;100219.21;111155;1231;61325;-68
2024/03/19 06:03:34;;;;;;;4.80;3.00;;;;;;;4.27;100.00;100228.05;111197;1231;61095;-69
2024/03/19 06:06:08;;;;;;;4.10;3.00;;;;;;;4.34;100.00;100232.20;111141;1231;75916;-70
2024/03/19 06:08:36;;;;;;;5.20;3.20;;;;;;;4.38;100.00;100239.92;111187;1231;73082;-68
2024/03/19 06:11:03;;;;;;;4.80;3.00;;;;;;;4.42;100.00;100245.89;111155;1235;72357;-69
2024/03/19 06:13:31;;;;;;;4.70;3.10;;;;;;;4.45;100.00;100250.89;111138;1231;61300;-70
2024/03/19 06:15:58;;;;;;;5.70;3.20;;;;;;;4.48;100.00;100256.75;111187;1231;61193;-68
2024/03/19 06:18:26;;;;;;;4.40;3.10;;;;;;;4.52;100.00;100261.50;111156;1231;75169;-66
2024/03/19 06:20:57;;;;;;;4.10;3.00;;;;;;;4.56;100.00;100260.14;111164;1231;72726;-68
2024/03/19 06:23:25;;;;;;;5.20;3.40;;;;;;;4.61;100.00;100265.86;111159;1231;73108;-68
2024/03/19 06:25:52;;;;;;;6.50;3.60;;;;;;;4.65;100.00;100271.52;111132;1231;61066;-67
2024/03/19 06:28:20;;;;;;;6.20;3.40;;;;;;;4.65;100.00;100275.80;111090;1231;61057;-68
2024/03/19 06:30:46;;;;;;;4.90;3.80;;;;;;;4.56;100.00;100279.48;111164;1231;74380;-68
2024/03/19 06:33:13;;;;;;;5.30;3.50;;;;;;;4.53;100.00;100285.42;111120;1231;73573;-67
2024/03/19 06:35:40;;;;;;;5.10;3.40;;;;;;;4.50;100.00;100293.02;111151;1231;72581;-67
2024/03/19 06:38:07;;;;;;;5.50;3.80;;;;;;;4.49;100.00;100294.05;111146;1231;61075;-68
2024/03/19 06:40:35;;;;;;;5.30;3.90;;;;;;;4.46;100.00;100301.16;111141;1231;61296;-69
2024/03/19 06:43:04;;;;;;;6.80;4.20;;;;;;;4.47;100.00;100303.85;111222;1232;75421;-68
2024/03/19 06:45:31;;;;;;;7.00;4.10;;;;;;;4.49;100.00;100306.38;111207;1232;72751;-68
2024/03/19 06:47:58;;;;;;;5.60;4.30;;;;;;;4.55;100.00;100308.30;111105;1231;73170;-68
2024/03/19 06:50:26;;;;;;;5.70;4.40;;;;;;;4.62;100.00;100312.67;111160;1231;62200;-69
2024/03/19 06:52:53;;;;;;;6.40;4.60;;;;;;;4.63;100.00;100316.12;111116;1231;61099;-69
2024/03/19 06:55:20;;;;;;;7.10;4.90;;;;;;;4.63;100.00;100324.83;111182;1231;73267;-69
2024/03/19 06:57:48;;;;;;;5.40;4.30;;;;;;;4.64;100.00;100328.28;111123;1231;71138;-68
2024/03/19 07:00:22;;;;;;;5.80;4.20;;;;;;;4.65;100.00;100331.11;111107;1231;73820;-70
2024/03/19 07:02:52;;;;;;;5.10;3.70;;;;;;;4.68;100.00;100336.95;111093;1231;61065;-68
2024/03/19 07:05:19;;;;;;;5.20;3.80;;;;;;;4.71;100.00;100340.32;111161;1231;61158;-70
2024/03/19 07:07:46;;;;;;;6.20;4.00;;;;;;;4.75;100.00;100339.52;111039;1231;75593;-69
2024/03/19 07:10:13;;;;;;;6.40;4.10;;;;;;;4.77;100.00;100337.73;111122;1231;74173;-68
2024/03/19 07:12:40;;;;;;;5.00;3.70;;;;;;;4.75;100.00;100335.88;111148;1237;71443;-68
2024/03/19 07:15:14;;;;;;;5.80;3.80;;;;;;;4.73;100.00;100343.44;111107;1231;61309;-69
2024/03/19 07:17:42;;;;;;;5.30;3.80;;;;;;;4.68;100.00;100344.55;111121;1231;62082;-68
2024/03/19 07:20:10;;;;;;;5.70;3.80;;;;;;;4.67;100.00;100345.46;111110;1231;75795;-68
2024/03/19 07:22:38;;;;;;;5.00;3.50;;;;;;;4.76;100.00;100341.40;111133;1231;71616;-67
2024/03/19 07:25:07;;;;;;;5.50;4.00;;;;;;;4.83;100.00;100345.17;111191;1231;73738;-68
2024/03/19 07:27:39;;;;;;;5.70;4.10;;;;;;;4.91;100.00;100342.17;111075;1231;60144;-68
2024/03/19 07:30:09;;;;;;;5.60;3.90;;;;;;;5.00;100.00;100342.98;111091;1231;60979;-69
2024/03/19 07:32:36;;;;;;;7.10;5.20;;;;;;;5.10;100.00;100346.10;111115;1231;74069;-68
2024/03/19 07:35:09;;;;;;;5.20;4.20;;;;;;;5.21;100.00;100339.71;111152;1231;73953;-68
2024/03/19 07:37:36;;;;;;;9.10;5.20;;;;;;;5.31;100.00;100345.51;111095;1231;71911;-68
2024/03/19 07:40:05;;;;;;;9.30;5.60;;;;;;;5.43;100.00;100340.56;111003;1231;62338;-69
2024/03/19 07:42:32;;;;;;;13.40;6.50;;;;;;;5.56;100.00;100344.05;111070;1231;61276;-69
2024/03/19 07:44:59;;;;;;;13.40;7.20;;;;;;;5.70;100.00;100347.45;111124;1231;75672;-69
2024/03/19 07:47:27;;;;;;;11.90;6.80;;;;;;;5.83;100.00;100356.48;111139;1231;73853;-68
2024/03/19 07:49:54;;;;;;;10.10;6.00;;;;;;;5.94;100.00;100355.27;111132;1232;73395;-67
2024/03/19 07:52:21;;;;;;;9.50;6.00;;;;;;;6.01;100.00;100354.08;111110;1231;62907;-68
2024/03/19 07:54:48;;;;;;;9.30;5.60;;;;;;;6.14;100.00;100353.52;111143;1231;60346;-69
2024/03/19 07:57:15;;;;;;;9.70;5.10;;;;;;;6.29;100.00;100354.42;111064;1231;75801;-68
2024/03/19 07:59:42;;;;;;;12.80;6.10;;;;;;;6.40;100.00;100356.91;111111;1231;73892;-69
2024/03/19 08:02:12;;;;;;;12.50;7.00;;;;;;;6.49;100.00;100364.96;111154;1236;71603;-72
2024/03/19 08:04:39;;;;;;;12.60;6.20;;;;;;;6.59;100.00;100365.67;111124;1231;61287;-68
2024/03/19 08:07:06;;;;;;;12.20;6.40;;;;;;;6.69;100.00;100368.42;111125;1231;61674;-67
2024/03/19 08:09:34;;;;;;;13.50;6.80;;;;;;;6.78;100.00;100368.49;111142;1231;75768;-69
2024/03/19 08:12:05;;;;;;;9.80;5.30;;;;;;;6.88;100.00;100368.15;111161;1231;73933;-68
2024/03/19 08:14:33;;;;;;;9.20;4.60;;;;;;;6.92;100.00;100371.08;111146;1231;73668;-68
2024/03/19 08:17:02;;;;;;;9.40;4.20;;;;;;;6.96;100.00;100371.23;111099;1232;61836;-68
2024/03/19 08:19:30;;;;;;;7.60;3.70;;;;;;;7.03;100.00;100373.05;111129;1231;60340;-67
2024/03/19 08:21:57;;;;;;;6.00;3.50;;;;;;;7.09;100.00;100376.23;111156;1232;75947;-68
2024/03/19 08:24:24;;;;;;;4.10;2.90;;;;;;;7.15;100.00;100378.27;111128;1236;74089;-67
2024/03/19 08:26:51;;;;;;;7.10;3.60;;;;;;;7.19;100.00;100385.19;111114;1232;72498;-68
2024/03/19 08:29:18;;;;;;;5.70;3.50;;;;;;;7.23;100.00;100384.62;111134;1231;61811;-70
2024/03/19 08:31:45;;;;;;;6.00;3.50;;;;;;;7.24;100.00;100388.67;111138;1231;61267;-68
2024/03/19 08:34:13;;;;;;;7.00;3.30;;;;;;;7.31;100.00;100391.77;111104;1231;75854;-68
2024/03/19 08:36:40;;;;;;;5.40;2.70;;;;;;;7.38;100.00;100393.27;111104;1231;73735;-69
2024/03/19 08:39:07;;;;;;;7.10;2.70;;;;;;;7.43;100.00;100394.95;111139;1231;73721;-68
2024/03/19 08:41:34;;;;;;;5.20;2.90;;;;;;;7.46;100.00;100396.40;111129;1231;63229;-68
2024/03/19 08:44:02;;;;;;;6.00;3.20;;;;;;;7.49;100.00;100400.17;111132;1231;61172;-68
2024/03/19 08:46:29;;;;;;;6.70;2.60;;;;;;;7.53;100.00;100407.73;111118;1231;75835;-67
2024/03/19 08:48:56;;;;;;;5.10;2.50;;;;;;;7.61;100.00;100410.39;111150;1236;73691;-68
2024/03/19 08:51:23;;;;;;;3.80;2.30;;;;;;;7.68;100.00;100410.42;111145;1235;73625;-68
2024/03/19 08:53:50;;;;;;;4.30;2.10;;;;;;;7.74;100.00;100410.30;111120;1231;62854;-68
2024/03/19 08:56:17;;;;;;;4.20;2.50;;;;;;;7.77;100.00;100411.63;111139;1231;61229;-67
2024/03/19 08:58:44;;;;;;;3.80;2.30;;;;;;;7.81;100.00;100412.64;111088;1231;74466;-67
2024/03/19 09:01:13;;;;;;;13.50;4.50;;;;;;;7.88;100.00;100418.17;111111;1231;72088;-67
2024/03/19 09:03:40;;;;;;;7.30;3.30;;;;;;;8.00;100.00;100416.98;111146;1232;72627;-68
2024/03/19 09:06:08;;;;;;;5.60;2.70;;;;;;;8.07;99.67;100419.95;111053;1231;62902;-67
2024/03/19 09:08:35;;;;;;;9.10;3.40;;;;;;;8.18;98.66;100422.09;111124;1231;61312;-69
2024/03/19 09:11:02;;;;;;;15.30;4.10;;;;;;;8.35;96.73;100423.50;111068;1236;75525;-67
2024/03/19 09:13:30;;;;;;;19.00;5.20;;;;;;;8.53;94.48;100421.36;111120;1236;72827;-70
2024/03/19 09:15:57;;;;;;;19.40;6.20;;;;;;;8.67;89.53;100420.00;111106;1231;73775;-69
2024/03/19 09:18:25;;;;;;;7.30;3.20;;;;;;;8.76;86.05;100419.84;111121;1231;61267;-66
2024/03/19 09:20:52;;;;;;;3.20;2.20;;;;;;;8.81;84.07;100423.42;111133;1232;61081;-67
2024/03/19 09:23:19;;;;;;;4.50;2.20;;;;;;;8.82;81.90;100425.45;111131;1231;75297;-67
2024/03/19 09:25:46;;;;;;;8.40;3.70;;;;;;;8.82;82.46;100424.23;111169;1231;71950;-67
2024/03/19 09:28:13;;;;;;;4.70;2.70;;;;;;;8.84;81.61;100430.16;111143;1232;71534;-67
2024/03/19 09:30:41;;;;;;;6.20;2.60;;;;;;;8.85;81.39;100429.55;111121;1231;63152;-66
2024/03/19 09:33:09;;;;;;;4.30;2.00;;;;;;;8.90;81.27;100430.45;111099;1231;61119;-67
2024/03/19 09:35:36;;;;;;;4.30;2.00;;;;;;;8.95;80.95;100432.77;111131;1235;75684;-66
2024/03/19 09:38:03;;;;;;;7.60;2.20;;;;;;;8.92;79.14;100435.48;111141;1232;73777;-66
2024/03/19 09:40:30;;;;;;;5.00;1.80;;;;;;;8.92;79.17;100441.13;111154;1231;73737;-67
2024/03/19 09:42:58;;;;;;;3.30;1.60;;;;;;;8.99;79.23;100444.25;111123;1231;63147;-66
2024/03/19 09:45:28;;;;;;;4.20;1.70;;;;;;;9.07;78.13;100451.80;111173;1231;61213;-65
2024/03/19 09:47:55;;;;;;;6.00;2.00;;;;;;;9.18;76.86;100448.78;111089;1231;75682;-65
2024/03/19 09:50:25;;;;;;;4.60;1.70;;;;;;;9.23;75.24;100453.64;111147;1231;73980;-66
2024/03/19 09:52:57;;;;;;;4.90;2.40;;;;;;;9.29;74.83;100455.92;111028;1231;73775;-68
2024/03/19 09:55:26;;;;;;;5.80;2.60;;;;;;;9.35;74.12;100447.84;111148;1231;63025;-66
2024/03/19 09:57:54;;;;;;;9.90;3.40;;;;;;;9.38;71.97;100446.59;111055;1231;61219;-66
2024/03/19 10:00:27;;;;;;;3.90;2.30;;;;;;;9.34;70.30;100448.31;111169;1235;73966;-65
2024/03/19 10:02:55;;;;;;;5.80;2.40;;;;;;;9.26;69.04;100451.31;111146;1235;72715;-65
2024/03/19 10:05:22;;;;;;;3.00;2.00;;;;;;;9.20;69.25;100449.55;111121;1232;72589;-65
2024/03/19 10:07:53;;;;;;;6.70;3.10;;;;;;;9.21;69.51;100453.55;111090;1232;63026;-65
2024/03/19 10:10:20;;;;;;;11.00;3.40;;;;;;;9.24;69.74;100458.45;111111;1231;61457;-65
2024/03/19 10:12:48;;;;;;;8.90;3.00;;;;;;;9.32;69.82;100458.09;111080;1231;76186;-66
2024/03/19 10:15:19;;;;;;;10.70;3.50;;;;;;;9.45;70.84;100456.69;111152;1231;72320;-66
2024/03/19 10:17:50;;;;;;;;;;;;;;;9.62;70.36;100457.02;111122;1231;70432;-66
2024/03/19 10:20:18;;;;;;;13.30;3.40;;;;;;;9.75;69.54;100458.34;111139;1232;62859;-67
2024/03/19 10:22:45;;;;;;;12.90;3.30;;;;;;;9.86;68.40;100458.81;111118;1232;61069;-66
2024/03/19 10:25:13;;;;;;;12.10;3.20;;;;;;;9.94;66.85;100464.22;111147;1235;73474;-66
2024/03/19 10:27:44;;;;;;;9.90;2.70;;;;;;;9.98;65.88;100465.57;111090;1231;71645;-66
2024/03/19 10:30:15;;;;;;;10.70;3.60;;;;;;;10.09;66.56;100467.20;111068;1232;72748;-66
2024/03/19 10:32:44;;;;;;;8.70;3.00;;;;;;;10.26;66.27;100466.06;111101;1231;61950;-66
2024/03/19 10:35:21;;;;;;;9.10;2.90;;;;;;;10.37;64.63;100467.96;111169;1231;61564;-65
2024/03/19 10:37:53;;;;;;;6.90;3.00;;;;;;;10.40;62.05;100475.14;111099;1231;75780;-66
2024/03/19 10:40:21;;;;;;;12.80;3.70;;;;;;;10.43;62.69;100481.83;111126;1235;70685;-68
2024/03/19 10:42:50;;;;;;;10.00;3.10;;;;;;;10.47;61.93;100478.77;111147;1231;71675;-66
2024/03/19 10:45:19;;;;;;;8.50;2.80;;;;;;;10.42;60.07;100477.29;111160;1232;61092;-65
2024/03/19 10:47:47;;;;;;;6.90;2.30;;;;;;;10.29;59.63;100482.05;111131;1231;61345;-65
2024/03/19 10:50:15;;;;;;;8.60;2.60;;;;;;;10.26;60.00;100477.76;111140;1235;73360;-67
2024/03/19 10:53:03;;;;;;;6.40;2.10;;;;;;;10.28;59.15;100480.09;111147;1236;72749;-68
2024/03/19 10:55:32;;;;;;;6.40;3.00;;;;;;;10.28;59.12;100487.83;111088;1232;72458;-67
2024/03/19 10:58:03;;;;;;;7.30;3.00;;;;;;;10.28;59.01;100485.42;111069;1231;62263;-65
2024/03/19 11:00:30;;;;;;;8.10;2.40;;;;;;;10.31;59.04;100486.77;111152;1235;61278;-65
2024/03/19 11:02:59;;;;;;;7.30;2.90;;;;;;;10.33;59.44;100486.31;111180;1232;73434;-66
2024/03/19 11:05:26;;;;;;;11.80;3.40;;;;;;;10.41;59.15;100491.05;111166;1231;73946;-65
2024/03/19 11:07:56;;;;;;;12.30;3.90;;;;;;;10.37;58.45;100492.20;111128;1236;73600;-65
2024/03/19 11:10:27;;;;;;;13.80;4.10;;;;;;;10.29;58.51;100492.48;111112;1231;61299;-66
2024/03/19 11:13:15;;;;;;;13.20;3.90;;;;;;;10.29;58.59;100492.69;111121;1236;61139;-66
2024/03/19 11:15:44;;;;;;;12.50;4.10;;;;;;;10.40;59.15;100494.04;111179;1232;73791;-67
2024/03/19 11:18:14;;;;;;;9.10;3.20;;;;;;;10.50;58.18;100494.53;111141;1231;72625;-65
2024/03/19 11:20:48;;;;;;;5.60;2.40;;;;;;;10.63;58.62;100493.54;111160;1235;72643;-64
2024/03/19 11:23:23;;;;;;;6.40;2.40;;;;;;;10.80;58.46;100493.69;111124;1236;61753;-65